Time;durP1;ratioP1;P1;durP2;ratioP2;P2;SDS_P1;SDS_P2;PMS_P1;PMS_P2;Temp;Humidity;BMP_temperature;BMP_pressure;BME280_temperature;BME280_humidity;BME280_pressure;Samples;Min_cycle;Max_cycle;Signal;HPM_P1;HPM_P2
2024/02/22 00:00:26;;;;;;;38.45;16.80;;;;;;;-2.43;72.98;99404.97;5033010;28;20049;-59
2024/02/22 00:02:52;;;;;;;34.90;17.20;;;;;;;-2.44;72.99;99399.91;5031910;28;20038;-58
2024/02/22 00:05:18;;;;;;;34.88;17.55;;;;;;;-2.35;72.50;99391.25;5033170;28;20260;-57
2024/02/22 00:07:44;;;;;;;32.75;16.17;;;;;;;-2.40;72.23;99391.69;5015067;28;20467;-58
2024/02/22 00:10:10;;;;;;;34.72;16.63;;;;;;;-2.37;73.05;99390.56;5031657;28;20131;-61
2024/02/22 00:12:39;;;;;;;30.70;15.52;;;;;;;-2.38;71.97;99392.34;5032937;28;20120;-59
2024/02/22 00:15:05;;;;;;;32.72;16.52;;;;;;;-2.42;72.08;99395.41;5033055;28;20048;-59
2024/02/22 00:17:32;;;;;;;42.30;18.05;;;;;;;-2.45;72.41;99388.72;5048100;28;20079;-59
2024/02/22 00:19:58;;;;;;;37.67;16.70;;;;;;;-2.43;72.59;99399.78;5028170;28;20140;-60
2024/02/22 00:22:24;;;;;;;32.28;16.85;;;;;;;-2.43;72.54;99397.19;5013121;28;20100;-59
2024/02/22 00:24:50;;;;;;;38.70;17.65;;;;;;;-2.34;72.74;99395.44;5030163;28;20049;-59
2024/02/22 00:27:15;;;;;;;35.22;18.35;;;;;;;-2.28;72.08;99397.44;5032634;28;20046;-60
2024/02/22 00:29:43;;;;;;;42.00;17.70;;;;;;;-2.36;72.11;99385.22;5032562;28;20136;-60
2024/02/22 00:32:09;;;;;;;37.53;17.95;;;;;;;-2.40;72.53;99378.72;5032439;28;20045;-60
2024/02/22 00:34:34;;;;;;;35.20;17.45;;;;;;;-2.34;72.28;99393.66;5031311;28;20079;-59
2024/02/22 00:37:00;;;;;;;34.72;17.60;;;;;;;-2.30;72.53;99382.00;5032420;28;20476;-61
2024/02/22 00:39:26;;;;;;;31.80;16.80;;;;;;;-2.25;72.35;99388.53;5022156;28;20415;-62
2024/02/22 00:41:51;;;;;;;34.05;16.63;;;;;;;-2.21;72.22;99384.63;5012657;28;20447;-59
2024/02/22 00:44:17;;;;;;;34.38;17.02;;;;;;;-2.13;73.03;99385.50;5011212;28;20500;-61
2024/02/22 00:46:43;;;;;;;35.80;17.50;;;;;;;-2.15;71.87;99376.22;5011173;28;20041;-60
2024/02/22 00:49:08;;;;;;;36.10;17.67;;;;;;;-2.18;71.66;99372.16;5027586;28;20069;-62
2024/02/22 00:51:34;;;;;;;35.55;16.25;;;;;;;-2.20;71.87;99370.69;5011407;28;20054;-61
2024/02/22 00:53:59;;;;;;;37.40;17.48;;;;;;;-2.20;72.16;99373.31;5027541;28;20105;-61
2024/02/22 00:56:25;;;;;;;33.20;17.05;;;;;;;-2.40;72.21;99344.97;5012548;28;20088;-61
2024/02/22 00:58:51;;;;;;;40.53;18.10;;;;;;;-2.16;72.12;99372.00;5019140;28;20077;-60
2024/02/22 01:01:17;;;;;;;35.90;17.60;;;;;;;-2.12;71.54;99368.13;5031778;28;20075;-61
2024/02/22 01:03:42;;;;;;;34.55;17.77;;;;;;;-2.09;71.57;99371.25;5030480;28;20045;-60
2024/02/22 01:06:10;;;;;;;38.17;18.10;;;;;;;-2.16;71.70;99365.03;5031194;28;20102;-61
2024/02/22 01:08:36;;;;;;;35.05;17.83;;;;;;;-2.20;71.78;99360.31;5032206;28;20118;-60
2024/02/22 01:11:03;;;;;;;36.78;18.05;;;;;;;-2.16;72.52;99362.44;5030279;28;20049;-58
2024/02/22 01:13:29;;;;;;;36.20;17.27;;;;;;;-2.14;71.59;99360.50;5030513;28;20087;-60
2024/02/22 01:15:55;;;;;;;36.38;16.70;;;;;;;-2.22;72.30;99362.25;5030239;28;20135;-59
2024/02/22 01:18:20;;;;;;;36.83;18.42;;;;;;;-2.24;72.20;99354.59;5031703;28;20048;-60
2024/02/22 01:20:46;;;;;;;39.42;17.85;;;;;;;-2.24;72.33;99364.97;5021812;28;20525;-60
2024/02/22 01:23:13;;;;;;;37.83;17.92;;;;;;;-2.26;72.62;99361.75;5012101;28;20038;-61
2024/02/22 01:25:39;;;;;;;36.63;18.85;;;;;;;-2.26;72.79;99355.72;5010462;28;20056;-60
2024/02/22 01:28:05;;;;;;;34.92;15.20;;;;;;;-2.37;72.48;99355.03;5010642;28;20038;-61
2024/02/22 01:30:31;;;;;;;34.65;17.92;;;;;;;-2.44;72.99;99356.63;5010339;28;20076;-58
2024/02/22 01:32:57;;;;;;;40.15;17.42;;;;;;;-2.39;72.92;99345.78;5012058;28;20069;-60
2024/02/22 01:35:22;;;;;;;39.03;16.52;;;;;;;-2.42;72.75;99348.69;5011763;28;20049;-61
2024/02/22 01:37:48;;;;;;;37.33;18.35;;;;;;;-2.44;73.28;99351.44;5011752;28;20056;-61
2024/02/22 01:40:15;;;;;;;35.53;18.70;;;;;;;-2.41;73.31;99347.69;5011717;28;20042;-60
2024/02/22 01:42:44;;;;;;;40.45;17.45;;;;;;;-2.49;73.10;99345.09;5010613;28;20068;-59
2024/02/22 01:45:10;;;;;;;37.65;17.27;;;;;;;-2.47;73.50;99343.13;5011907;28;20065;-60
2024/02/22 01:47:36;;;;;;;39.60;17.80;;;;;;;-2.44;73.60;99341.06;5011753;28;20038;-60
2024/02/22 01:50:03;;;;;;;32.05;16.45;;;;;;;-2.44;73.12;99340.22;5011827;28;20048;-60
2024/02/22 01:52:29;;;;;;;41.30;18.15;;;;;;;-2.38;73.87;99340.44;5011630;28;20045;-60
2024/02/22 01:54:55;;;;;;;34.00;17.35;;;;;;;-2.37;73.03;99331.66;5010561;28;20180;-60
2024/02/22 01:57:21;;;;;;;42.25;19.80;;;;;;;-2.35;73.29;99324.53;4994686;28;20094;-60
2024/02/22 01:59:47;;;;;;;34.97;17.52;;;;;;;-2.45;73.62;99325.63;5031505;28;20100;-60
2024/02/22 02:02:13;;;;;;;35.05;18.40;;;;;;;-2.44;73.43;99315.09;5035199;28;20069;-60
2024/02/22 02:04:39;;;;;;;39.65;19.23;;;;;;;-2.40;73.30;99308.63;5035832;28;20060;-61
2024/02/22 02:07:05;;;;;;;34.60;17.38;;;;;;;-2.45;73.76;99303.06;5033686;28;20037;-60
2024/02/22 02:09:31;;;;;;;39.15;19.10;;;;;;;-2.52;73.71;99297.69;5034162;28;20052;-60
2024/02/22 02:11:56;;;;;;;33.05;15.30;;;;;;;-2.58;73.63;99303.50;5029365;28;20140;-60
2024/02/22 02:14:23;;;;;;;39.28;17.85;;;;;;;-2.55;73.79;99303.19;5015395;28;20515;-61
2024/02/22 02:16:49;;;;;;;38.35;17.55;;;;;;;-2.55;74.22;99303.19;5014768;28;20526;-57
2024/02/22 02:19:19;;;;;;;35.35;17.13;;;;;;;-2.51;73.84;99303.69;5015288;28;20050;-61
2024/02/22 02:22:10;;;;;;;35.83;17.60;;;;;;;-2.40;74.08;99305.22;5013631;28;20563;-60
2024/02/22 02:24:54;;;;;;;36.78;17.50;;;;;;;-2.46;73.46;99300.66;5015451;28;20061;-61
2024/02/22 02:27:20;;;;;;;35.78;17.17;;;;;;;-2.55;73.99;99300.59;5014727;28;20041;-59
2024/02/22 02:29:46;;;;;;;41.28;19.33;;;;;;;-2.48;73.67;99300.78;5013858;28;20133;-59
2024/02/22 02:32:11;;;;;;;31.15;15.05;;;;;;;-2.55;73.72;99294.59;5014740;28;20046;-59
2024/02/22 02:34:37;;;;;;;31.13;14.57;;;;;;;-2.57;73.98;99296.53;5015014;28;20052;-61
2024/02/22 02:37:03;;;;;;;37.35;17.65;;;;;;;-2.57;74.00;99297.34;5014979;28;20050;-60
2024/02/22 02:39:28;;;;;;;42.28;18.63;;;;;;;-2.53;74.92;99287.47;5014537;28;20044;-61
2024/02/22 02:41:54;;;;;;;44.65;18.60;;;;;;;-2.56;73.85;99283.41;5013362;28;20047;-58
2024/02/22 02:44:20;;;;;;;37.13;18.10;;;;;;;-2.51;74.12;99285.53;5014608;28;20042;-61
2024/02/22 02:46:48;;;;;;;34.78;17.13;;;;;;;-2.46;73.74;99283.28;5013745;28;20088;-60
2024/02/22 02:49:14;;;;;;;39.28;18.27;;;;;;;-2.52;74.29;99283.91;5014803;28;20157;-60
2024/02/22 02:51:40;;;;;;;34.45;16.25;;;;;;;-2.52;73.89;99283.91;5014712;28;20550;-60
2024/02/22 02:54:05;;;;;;;34.85;16.75;;;;;;;-2.42;74.02;99288.97;5014771;28;20400;-60
2024/02/22 02:56:32;;;;;;;40.85;18.15;;;;;;;-2.36;73.52;99291.75;4996883;28;20141;-60
2024/02/22 02:58:59;;;;;;;35.15;17.40;;;;;;;-2.35;73.25;99288.19;5023593;28;20142;-59
2024/02/22 03:01:24;;;;;;;37.80;18.38;;;;;;;-2.26;73.51;99288.22;5034184;28;20037;-60
2024/02/22 03:03:50;;;;;;;32.55;17.35;;;;;;;-2.32;73.74;99289.69;5033730;28;20099;-60
2024/02/22 03:06:16;;;;;;;40.72;18.13;;;;;;;-2.34;74.10;99289.00;5032788;28;20049;-61
2024/02/22 03:08:41;;;;;;;34.92;18.05;;;;;;;-2.33;73.65;99295.81;5032989;28;20065;-60
2024/02/22 03:11:07;;;;;;;35.35;18.08;;;;;;;-2.37;73.85;99287.53;5034465;28;20494;-60
2024/02/22 03:13:34;;;;;;;35.95;17.42;;;;;;;-2.31;73.58;99288.69;5049302;28;20045;-60
2024/02/22 03:15:59;;;;;;;38.13;18.48;;;;;;;-2.28;73.47;99288.38;5034071;28;20053;-60
2024/02/22 03:18:25;;;;;;;37.97;18.05;;;;;;;-2.29;72.98;99284.97;5034216;28;20037;-59
2024/02/22 03:20:52;;;;;;;34.42;18.35;;;;;;;-2.37;73.15;99289.31;5032544;28;20046;-61
2024/02/22 03:23:18;;;;;;;36.40;16.95;;;;;;;-2.33;73.15;99295.81;5032727;28;20049;-59
2024/02/22 03:25:44;;;;;;;36.50;17.98;;;;;;;-2.23;73.35;99299.13;5033808;28;20072;-60
2024/02/22 03:28:12;;;;;;;40.55;18.75;;;;;;;-2.19;73.38;99308.22;5032227;28;20118;-57
2024/02/22 03:30:39;;;;;;;34.50;17.50;;;;;;;-2.24;73.20;99307.84;5032553;28;20435;-59
2024/02/22 03:33:08;;;;;;;35.50;17.20;;;;;;;-2.07;73.33;99311.34;5033774;28;20457;-58
2024/02/22 03:35:38;;;;;;;38.35;18.52;;;;;;;-1.97;72.24;99314.63;5005987;28;20339;-60
2024/02/22 03:38:04;;;;;;;40.90;18.05;;;;;;;-2.06;72.24;99318.97;5028987;28;20502;-60
2024/02/22 03:40:30;;;;;;;38.65;17.33;;;;;;;-2.07;72.68;99319.13;5023561;28;20092;-61
2024/02/22 03:42:57;;;;;;;37.92;19.05;;;;;;;-2.00;72.67;99327.94;5033543;28;20049;-59
2024/02/22 03:45:23;;;;;;;37.58;17.92;;;;;;;-1.95;72.09;99323.03;5024193;28;20565;-60
2024/02/22 03:47:49;;;;;;;40.25;17.67;;;;;;;-1.92;71.92;99321.91;5028653;28;20049;-60
2024/02/22 03:50:16;;;;;;;35.70;18.67;;;;;;;-2.04;72.07;99328.38;5013337;28;20546;-60
2024/02/22 03:52:41;;;;;;;35.42;17.63;;;;;;;-2.00;72.03;99327.09;5013251;28;20503;-60
2024/02/22 03:55:09;;;;;;;50.50;24.23;;;;;;;-2.17;72.36;99321.84;5013348;28;20045;-62
2024/02/22 03:57:35;;;;;;;43.47;18.92;;;;;;;-2.10;72.48;99322.84;5019030;28;20123;-60
2024/02/22 04:00:04;;;;;;;36.35;17.15;;;;;;;-2.13;72.58;99330.16;5031200;28;20095;-60
2024/02/22 04:02:38;;;;;;;36.88;18.38;;;;;;;-2.09;72.56;99321.91;5033137;28;20046;-60
2024/02/22 04:05:04;;;;;;;38.28;19.02;;;;;;;-2.08;72.16;99323.50;5032986;28;20045;-59
2024/02/22 04:07:30;;;;;;;37.10;17.63;;;;;;;-2.06;72.32;99318.97;5032830;28;20037;-54
2024/02/22 04:09:56;;;;;;;37.60;17.70;;;;;;;-2.07;72.38;99316.53;5031836;28;20049;-61
2024/02/22 04:12:21;;;;;;;37.28;18.80;;;;;;;-2.08;72.69;99323.50;5015536;28;20048;-60
2024/02/22 04:14:47;;;;;;;39.58;19.10;;;;;;;-2.05;72.72;99319.78;5032544;28;20053;-59
2024/02/22 04:17:13;;;;;;;38.65;18.23;;;;;;;-2.13;72.85;99312.78;5021442;28;20055;-59
2024/02/22 04:19:38;;;;;;;41.70;19.90;;;;;;;-2.07;72.42;99322.53;5026277;28;20048;-59
2024/02/22 04:22:04;;;;;;;36.05;18.17;;;;;;;-2.06;72.27;99313.78;5020386;28;20042;-56
2024/02/22 04:24:29;;;;;;;38.08;17.77;;;;;;;-2.03;71.92;99315.22;5023458;28;20061;-60
2024/02/22 04:26:55;;;;;;;36.88;18.05;;;;;;;-2.08;72.45;99315.72;5020218;28;20042;-57
2024/02/22 04:29:21;;;;;;;38.20;18.63;;;;;;;-2.07;72.28;99312.13;5025979;28;20063;-58
2024/02/22 04:31:47;;;;;;;34.25;17.10;;;;;;;-2.07;72.29;99314.72;5030527;28;20041;-57
2024/02/22 04:34:13;;;;;;;43.08;19.63;;;;;;;-2.06;72.31;99312.94;5032748;28;20380;-60
2024/02/22 04:36:42;;;;;;;37.15;18.35;;;;;;;-2.13;72.57;99311.97;5025905;28;20112;-61
2024/02/22 04:39:11;;;;;;;37.30;18.15;;;;;;;-2.20;72.65;99309.19;5025668;28;20045;-57
2024/02/22 04:41:37;;;;;;;38.53;18.48;;;;;;;-2.28;72.71;99309.16;5006222;28;20037;-59
2024/02/22 04:44:04;;;;;;;34.80;17.55;;;;;;;-2.29;72.91;99323.13;5027665;28;20407;-61
2024/02/22 04:46:38;;;;;;;33.88;16.33;;;;;;;-2.39;73.50;99309.44;5006780;28;20049;-61
2024/02/22 04:49:09;;;;;;;38.17;18.90;;;;;;;-2.46;73.58;99308.44;4975200;28;20044;-59
2024/02/22 04:51:35;;;;;;;41.70;17.63;;;;;;;-2.51;74.04;99309.69;5015041;28;20069;-61
2024/02/22 04:54:01;;;;;;;39.25;18.75;;;;;;;-2.44;73.85;99309.06;5012505;28;20175;-61
2024/02/22 04:56:28;;;;;;;35.08;17.73;;;;;;;-2.46;74.24;99303.25;5012428;28;20057;-58
2024/02/22 04:58:55;;;;;;;42.17;17.80;;;;;;;-2.37;73.58;99310.91;5022431;28;20060;-60
2024/02/22 05:01:22;;;;;;;40.08;17.92;;;;;;;-2.27;73.76;99310.75;5020687;28;20120;-61
2024/02/22 05:03:48;;;;;;;40.08;19.20;;;;;;;-2.25;73.44;99311.44;5037245;28;20049;-61
2024/02/22 05:06:13;;;;;;;39.70;18.55;;;;;;;-2.19;72.94;99312.59;5031801;28;20060;-61
2024/02/22 05:08:39;;;;;;;39.20;18.48;;;;;;;-2.16;73.02;99309.69;5020241;28;20060;-62
2024/02/22 05:11:08;;;;;;;41.55;19.63;;;;;;;-2.19;72.95;99310.00;5031767;28;20057;-61
2024/02/22 05:13:34;;;;;;;44.05;19.70;;;;;;;-2.12;73.50;99308.38;5030432;28;20041;-60
2024/02/22 05:15:59;;;;;;;38.00;18.40;;;;;;;-2.24;73.27;99313.06;5013944;28;20049;-60
2024/02/22 05:18:25;;;;;;;37.17;19.20;;;;;;;-2.07;73.26;99313.94;5031772;28;20091;-62
2024/02/22 05:20:51;;;;;;;38.50;18.40;;;;;;;-2.04;73.00;99316.22;5031640;28;20056;-64
2024/02/22 05:23:16;;;;;;;35.92;18.17;;;;;;;-2.04;72.75;99315.41;5030257;28;20103;-61
2024/02/22 05:25:42;;;;;;;39.97;19.00;;;;;;;-1.97;72.37;99317.22;5046370;28;20053;-62
2024/02/22 05:28:11;;;;;;;39.40;17.30;;;;;;;-2.00;72.45;99321.91;5029194;28;20060;-63
2024/02/22 05:30:36;;;;;;;40.53;18.00;;;;;;;-2.01;72.67;99322.88;5031264;28;20446;-61
2024/02/22 05:33:02;;;;;;;39.72;18.50;;;;;;;-1.97;72.66;99332.81;5029951;28;20514;-59
2024/02/22 05:35:29;;;;;;;36.22;18.33;;;;;;;-2.05;72.64;99330.19;5029465;28;20099;-61
2024/02/22 05:37:54;;;;;;;35.67;17.80;;;;;;;-1.93;72.84;99318.50;5030264;28;20053;-60
2024/02/22 05:40:20;;;;;;;43.53;18.65;;;;;;;-1.90;71.96;99335.56;5028659;28;20055;-62
2024/02/22 05:42:46;;;;;;;35.85;17.75;;;;;;;-1.96;72.23;99336.22;5031357;28;20037;-59
2024/02/22 05:45:11;;;;;;;39.40;18.63;;;;;;;-1.93;72.42;99330.69;5014515;28;20042;-60
2024/02/22 05:47:38;;;;;;;42.58;19.52;;;;;;;-1.90;72.33;99336.38;5010511;28;20111;-60
2024/02/22 05:50:04;;;;;;;37.10;18.85;;;;;;;-1.86;72.84;99336.88;5011574;28;20081;-59
2024/02/22 05:52:29;;;;;;;43.65;18.15;;;;;;;-1.84;72.48;99327.94;5011668;28;20491;-60
2024/02/22 05:54:55;;;;;;;39.65;18.85;;;;;;;-1.85;71.99;99328.94;5011205;28;20046;-61
2024/02/22 05:57:20;;;;;;;38.65;18.80;;;;;;;-1.78;72.21;99329.09;5011433;28;20045;-57
2024/02/22 05:59:46;;;;;;;42.97;18.58;;;;;;;-1.69;71.80;99320.34;5009719;28;20089;-58
2024/02/22 06:02:12;;;;;;;40.42;18.73;;;;;;;-1.55;71.50;99328.50;5010058;28;20038;-60
2024/02/22 06:04:38;;;;;;;42.35;19.58;;;;;;;-1.44;70.92;99336.81;5011132;28;20070;-62
2024/02/22 06:07:03;;;;;;;39.80;18.60;;;;;;;-1.36;70.51;99335.97;5011199;28;20128;-60
2024/02/22 06:09:30;;;;;;;41.72;18.27;;;;;;;-1.46;70.30;99330.94;5011826;28;20196;-61
2024/02/22 06:11:56;;;;;;;40.13;17.80;;;;;;;-1.60;71.04;99327.19;5011219;28;20045;-62
2024/02/22 06:14:21;;;;;;;41.05;18.90;;;;;;;-1.60;70.83;99334.97;5009932;28;20050;-62
2024/02/22 06:16:47;;;;;;;39.58;18.05;;;;;;;-1.57;70.92;99328.66;5010520;28;20053;-61
2024/02/22 06:19:13;;;;;;;46.78;18.90;;;;;;;-1.48;71.01;99327.69;5020469;28;20046;-60
2024/02/22 06:21:38;;;;;;;44.10;19.63;;;;;;;-1.44;70.94;99318.59;5030536;28;20044;-61
2024/02/22 06:24:04;;;;;;;37.22;18.25;;;;;;;-1.22;70.39;99330.13;5030871;28;20025;-60
2024/02/22 06:26:33;;;;;;;38.33;17.10;;;;;;;-1.26;69.85;99326.25;5014331;28;20132;-61
2024/02/22 06:29:00;;;;;;;41.42;19.75;;;;;;;-1.23;69.89;99331.13;5010673;28;20341;-58
2024/02/22 06:31:26;;;;;;;45.70;19.20;;;;;;;-1.24;69.73;99333.88;5009313;28;20057;-61
2024/02/22 06:33:52;;;;;;;44.22;21.70;;;;;;;-1.25;70.12;99333.06;5017444;28;20155;-58
2024/02/22 06:36:19;;;;;;;44.20;19.02;;;;;;;-1.28;70.04;99324.78;5030416;28;20054;-60
2024/02/22 06:38:48;;;;;;;41.92;19.05;;;;;;;-1.18;70.16;99333.22;5030241;28;20403;-61
2024/02/22 06:41:15;;;;;;;36.47;18.52;;;;;;;-1.13;69.87;99330.94;5020634;28;20096;-59
2024/02/22 06:43:41;;;;;;;40.97;19.77;;;;;;;-0.97;69.18;99330.13;5032066;28;20048;-60
2024/02/22 06:46:07;;;;;;;42.60;18.63;;;;;;;-0.96;68.80;99326.56;5033098;28;20132;-61
2024/02/22 06:48:32;;;;;;;44.08;19.77;;;;;;;-1.08;69.14;99322.66;5032585;28;20033;-60
2024/02/22 06:50:59;;;;;;;38.85;18.65;;;;;;;-1.11;69.54;99326.41;5027600;28;20069;-62
2024/02/22 06:53:24;;;;;;;39.97;18.27;;;;;;;-1.13;69.53;99327.53;5014205;28;20050;-60
2024/02/22 06:55:50;;;;;;;42.30;18.02;;;;;;;-1.23;69.43;99323.31;5014163;28;20049;-60
2024/02/22 06:58:16;;;;;;;42.97;19.05;;;;;;;-1.28;69.75;99338.59;5012662;28;20064;-61
2024/02/22 07:00:42;;;;;;;38.03;18.98;;;;;;;-1.26;69.44;99326.25;5012515;28;20050;-60
2024/02/22 07:03:11;;;;;;;42.20;18.60;;;;;;;-1.15;69.38;99328.53;5014431;28;20052;-61
2024/02/22 07:05:37;;;;;;;41.80;18.67;;;;;;;-1.40;69.93;99332.09;5033847;28;20126;-59
2024/02/22 07:08:03;;;;;;;42.42;19.35;;;;;;;-1.28;70.02;99335.19;5033813;28;20044;-60
2024/02/22 07:10:28;;;;;;;38.75;19.33;;;;;;;-1.28;70.89;99340.38;5033623;28;20045;-62
2024/02/22 07:12:55;;;;;;;43.72;18.48;;;;;;;-1.17;69.93;99340.88;5033700;28;20083;-61
2024/02/22 07:15:21;;;;;;;46.15;20.60;;;;;;;-1.15;70.14;99346.75;5031928;28;20069;-60
2024/02/22 07:17:47;;;;;;;45.38;18.15;;;;;;;-1.10;69.82;99342.81;5020693;28;20046;-61
2024/02/22 07:20:13;;;;;;;44.75;18.95;;;;;;;-1.04;69.50;99349.97;5013632;28;20038;-61
2024/02/22 07:22:41;;;;;;;48.17;19.60;;;;;;;-1.00;69.48;99346.06;5013913;28;20038;-60
2024/02/22 07:25:10;;;;;;;48.67;21.30;;;;;;;-0.98;69.29;99344.13;5012236;28;20038;-61
2024/02/22 07:27:36;;;;;;;40.78;20.13;;;;;;;-0.93;69.26;99342.66;5012273;28;20046;-58
2024/02/22 07:30:02;;;;;;;46.90;19.48;;;;;;;-0.93;69.91;99344.44;5029724;28;20045;-62
2024/02/22 07:32:29;;;;;;;43.92;19.23;;;;;;;-1.06;69.65;99355.34;5033321;28;20041;-59
2024/02/22 07:34:54;;;;;;;42.72;19.25;;;;;;;-1.03;69.77;99351.59;5031638;28;20048;-62
2024/02/22 07:37:20;;;;;;;45.35;19.27;;;;;;;-0.86;69.48;99353.19;5015330;28;20483;-60
2024/02/22 07:39:46;;;;;;;46.42;19.75;;;;;;;-0.81;69.32;99345.72;5019457;28;20050;-61
2024/02/22 07:42:12;;;;;;;41.00;19.25;;;;;;;-0.78;69.42;99352.41;5013451;28;20077;-62
2024/02/22 07:44:43;;;;;;;44.78;19.70;;;;;;;-0.74;69.30;99346.66;5024672;28;20049;-61
2024/02/22 07:47:08;;;;;;;;;;;;;;;-0.53;69.03;99353.16;5033652;28;20482;-59
2024/02/22 07:49:34;;;;;;;45.10;19.02;;;;;;;-0.39;68.54;99362.06;5032479;28;19925;-61
2024/02/22 07:52:00;;;;;;;40.15;18.75;;;;;;;-0.35;67.30;99356.38;5031759;28;20037;-61
2024/02/22 07:54:25;;;;;;;40.33;19.20;;;;;;;-0.37;67.36;99358.31;5027018;28;20483;-62
2024/02/22 07:56:51;;;;;;;43.17;19.48;;;;;;;-0.35;67.29;99364.19;5031050;28;20053;-61
2024/02/22 07:59:16;;;;;;;47.58;20.20;;;;;;;-0.29;67.55;99357.50;5031190;28;20065;-60
2024/02/22 08:01:42;;;;;;;43.30;18.85;;;;;;;-0.19;67.04;99358.09;5031953;28;20503;-62
2024/02/22 08:04:08;;;;;;;45.88;19.60;;;;;;;-0.28;67.02;99352.09;5014857;28;20420;-60
2024/02/22 08:06:34;;;;;;;44.10;19.73;;;;;;;-0.22;67.75;99344.59;5033177;28;20087;-61
2024/02/22 08:08:59;;;;;;;40.83;19.58;;;;;;;-0.13;66.90;99352.22;5024916;28;20555;-59
2024/02/22 08:11:27;;;;;;;41.13;18.65;;;;;;;-0.15;66.50;99353.34;5032945;28;20624;-60
2024/02/22 08:13:53;;;;;;;44.05;19.83;;;;;;;-0.22;67.15;99363.66;5032155;28;20037;-59
2024/02/22 08:16:18;;;;;;;47.35;20.30;;;;;;;-0.32;67.13;99350.81;5032673;28;20045;-60
2024/02/22 08:18:44;;;;;;;41.83;18.10;;;;;;;-0.29;67.03;99360.91;5030883;28;20044;-57
2024/02/22 08:21:10;;;;;;;37.92;18.90;;;;;;;-0.46;67.86;99367.13;5032599;28;20136;-60
2024/02/22 08:23:37;;;;;;;41.15;19.40;;;;;;;-0.42;68.03;99365.81;5030588;28;20510;-57
2024/02/22 08:26:03;;;;;;;44.95;20.13;;;;;;;-0.56;68.07;99353.47;5013101;28;20103;-60
2024/02/22 08:28:29;;;;;;;43.72;19.67;;;;;;;-0.53;68.45;99358.34;5016011;28;20478;-59
2024/02/22 08:30:55;;;;;;;43.60;20.55;;;;;;;-0.35;67.75;99363.38;5031048;28;20057;-62
2024/02/22 08:33:24;;;;;;;47.42;20.88;;;;;;;-0.31;67.38;99370.66;5032292;28;20041;-60
2024/02/22 08:35:49;;;;;;;46.92;19.60;;;;;;;-0.37;67.46;99368.75;5030877;28;20049;-60
2024/02/22 08:38:15;;;;;;;48.50;19.77;;;;;;;-0.26;66.95;99357.16;5030834;28;20414;-59
2024/02/22 08:40:41;;;;;;;41.58;19.80;;;;;;;-0.09;66.76;99357.88;5017721;28;20048;-63
2024/02/22 08:43:08;;;;;;;46.70;20.95;;;;;;;-0.06;66.97;99357.56;4994575;28;20132;-61
2024/02/22 08:45:37;;;;;;;55.63;20.98;;;;;;;-0.02;66.66;99358.84;5012161;28;20080;-60
2024/02/22 08:48:03;;;;;;;39.28;18.80;;;;;;;0.03;66.21;99361.78;5012570;28;20038;-61
2024/02/22 08:50:29;;;;;;;43.22;20.17;;;;;;;-0.17;66.81;99348.31;5031453;28;20045;-62
2024/02/22 08:52:55;;;;;;;42.85;19.95;;;;;;;-0.11;66.93;99358.06;5032245;28;20096;-61
2024/02/22 08:55:22;;;;;;;45.63;20.55;;;;;;;-0.15;66.89;99363.78;5046970;28;20041;-62
2024/02/22 08:57:48;;;;;;;45.28;20.02;;;;;;;-0.18;67.07;99357.09;5047411;28;20037;-62
2024/02/22 09:00:14;;;;;;;43.70;20.83;;;;;;;-0.10;66.80;99362.28;5029838;28;20057;-62
2024/02/22 09:02:40;;;;;;;49.33;20.13;;;;;;;-0.22;67.49;99366.25;5047094;28;20045;-61
2024/02/22 09:05:08;;;;;;;46.53;20.95;;;;;;;-0.14;67.24;99368.84;5031060;28;20045;-60
2024/02/22 09:07:35;;;;;;;43.67;20.17;;;;;;;-0.06;67.13;99367.97;5031391;28;20041;-60
2024/02/22 09:10:07;;;;;;;44.03;21.13;;;;;;;-0.21;67.42;99369.66;5031047;28;20030;-59
2024/02/22 09:12:33;;;;;;;43.88;21.60;;;;;;;-0.12;67.49;99353.00;5031568;28;20090;-60
2024/02/22 09:14:59;;;;;;;46.92;21.40;;;;;;;-0.08;67.59;99357.72;5030320;28;20057;-63
2024/02/22 09:17:24;;;;;;;47.60;22.30;;;;;;;-0.04;67.48;99355.59;5010577;28;20049;-61
2024/02/22 09:19:51;;;;;;;43.78;22.02;;;;;;;0.15;67.42;99354.38;5011113;28;20046;-62
2024/02/22 09:22:20;;;;;;;48.70;21.13;;;;;;;0.15;66.03;99354.38;5011269;28;20194;-61
2024/02/22 09:24:46;;;;;;;47.03;20.80;;;;;;;0.11;66.81;99359.09;5010015;28;20107;-61
2024/02/22 09:27:13;;;;;;;44.67;20.75;;;;;;;0.16;66.62;99356.00;5011696;28;20116;-61
2024/02/22 09:29:40;;;;;;;53.42;22.17;;;;;;;0.26;66.72;99351.38;5009978;28;20571;-62
2024/02/22 09:32:06;;;;;;;48.92;23.05;;;;;;;0.22;65.59;99350.09;4993939;28;20129;-60
2024/02/22 09:34:41;;;;;;;47.10;22.15;;;;;;;0.26;66.28;99353.97;5026509;28;20045;-61
2024/02/22 09:37:07;;;;;;;50.17;22.27;;;;;;;0.15;66.13;99355.19;5011359;28;20964;-61
2024/02/22 09:39:33;;;;;;;54.58;23.75;;;;;;;0.12;66.48;99350.31;5021916;28;20046;-61
2024/02/22 09:41:59;;;;;;;54.47;22.88;;;;;;;0.09;66.93;99345.44;4994959;28;20033;-58
2024/02/22 09:44:32;;;;;;;44.42;21.70;;;;;;;0.18;66.26;99344.41;5019294;28;20125;-59
2024/02/22 09:46:58;;;;;;;46.08;20.70;;;;;;;0.07;66.91;99341.38;5012743;28;20061;-62
2024/02/22 09:49:24;;;;;;;51.20;22.92;;;;;;;0.04;67.06;99336.50;5030843;28;20076;-62
2024/02/22 09:51:53;;;;;;;51.55;22.23;;;;;;;-0.03;67.39;99347.63;5025699;28;20042;-60
2024/02/22 09:54:20;;;;;;;50.90;23.10;;;;;;;-0.01;66.75;99339.63;5011474;28;20089;-61
2024/02/22 09:56:50;;;;;;;50.60;21.13;;;;;;;-0.09;66.90;99340.50;5011171;28;20184;-62
2024/02/22 09:59:16;;;;;;;47.17;22.33;;;;;;;-0.05;67.49;99344.38;5011484;28;20120;-62
2024/02/22 10:01:43;;;;;;;55.17;23.35;;;;;;;-0.15;67.69;99335.94;5029184;28;20172;-61
2024/02/22 10:04:16;;;;;;;49.28;22.77;;;;;;;-0.13;67.71;99340.97;5029983;28;20091;-60
2024/02/22 10:06:42;;;;;;;54.05;22.83;;;;;;;-0.14;67.22;99341.97;5031224;28;20450;-61
2024/02/22 10:09:08;;;;;;;50.28;22.67;;;;;;;-0.14;68.08;99340.16;5012643;28;20108;-62
2024/02/22 10:11:36;;;;;;;55.75;23.73;;;;;;;-0.10;67.45;99343.25;5031375;28;20033;-63
2024/02/22 10:14:02;;;;;;;55.08;24.65;;;;;;;-0.06;67.78;99340.16;5030693;28;20045;-63
2024/02/22 10:16:28;;;;;;;56.97;24.13;;;;;;;0.04;67.89;99341.72;5030129;28;20057;-62
2024/02/22 10:19:00;;;;;;;52.20;23.48;;;;;;;0.09;67.48;99340.25;5020050;28;20042;-62
2024/02/22 10:21:28;;;;;;;48.65;22.00;;;;;;;0.03;67.12;99327.06;5030852;28;20045;-61
2024/02/22 10:23:54;;;;;;;50.70;22.88;;;;;;;0.03;66.85;99346.13;5035656;28;20064;-63
2024/02/22 10:26:20;;;;;;;54.10;23.73;;;;;;;-0.01;67.33;99332.59;5019465;28;20056;-63
2024/02/22 10:29:09;;;;;;;51.17;24.38;;;;;;;0.11;67.80;99340.84;5015029;28;20042;-62
2024/02/22 10:31:47;;;;;;;52.67;23.17;;;;;;;0.14;67.56;99334.50;5030322;28;20109;-63
2024/02/22 10:34:14;;;;;;;46.13;21.50;;;;;;;0.14;67.44;99339.72;5033203;28;20041;-61
2024/02/22 10:36:40;;;;;;;55.45;23.63;;;;;;;0.15;67.40;99336.94;5049847;28;20123;-61
2024/02/22 10:39:08;;;;;;;49.25;23.05;;;;;;;0.26;67.05;99338.34;5033361;28;20533;-61
2024/02/22 10:41:34;;;;;;;50.95;22.67;;;;;;;0.29;66.85;99342.41;5016959;28;20095;-63
2024/02/22 10:44:03;;;;;;;53.95;23.45;;;;;;;0.33;66.90;99341.09;5025439;28;20041;-63
2024/02/22 10:46:40;;;;;;;53.63;22.92;;;;;;;0.27;66.74;99347.00;5028935;28;20137;-64
2024/02/22 10:49:11;;;;;;;50.15;22.23;;;;;;;0.22;67.02;99342.28;5000373;28;20064;-64
2024/02/22 10:51:41;;;;;;;51.22;22.77;;;;;;;0.11;67.08;99338.25;5033160;28;20123;-64
2024/02/22 10:54:25;;;;;;;58.47;25.80;;;;;;;0.18;67.87;99335.78;5014265;28;20038;-60
2024/02/22 10:57:01;;;;;;;49.22;21.65;;;;;;;0.29;66.81;99334.56;4999083;28;20056;-61
2024/02/22 10:59:29;;;;;;;55.35;23.67;;;;;;;0.34;66.60;99343.50;5032714;28;20060;-64
2024/02/22 11:01:55;;;;;;;53.55;22.17;;;;;;;0.33;67.28;99341.09;5032508;28;20043;-61
2024/02/22 11:04:21;;;;;;;51.92;23.67;;;;;;;0.39;67.52;99333.38;5025975;28;20046;-64
2024/02/22 11:06:50;;;;;;;55.55;23.08;;;;;;;0.37;66.72;99330.13;5014214;28;20054;-61
2024/02/22 11:09:19;;;;;;;51.05;23.40;;;;;;;0.37;66.65;99335.34;5032284;28;20040;-62
2024/02/22 11:11:52;;;;;;;47.03;21.38;;;;;;;0.31;67.11;99335.22;5034176;28;20470;-63
2024/02/22 11:14:30;;;;;;;45.88;22.10;;;;;;;0.30;67.28;99331.81;5028796;28;20048;-61
2024/02/22 11:16:56;;;;;;;51.08;20.65;;;;;;;0.30;67.33;99326.59;5013876;28;20042;-62